sensor_id;sensor_type;location;lat;lon;timestamp;P1;durP1;ratioP1;P2;durP2;ratioP2
359;SDS011;168;48.872;9.226;2022-09-12T00:00:17;11.20;;;10.20;;
359;SDS011;168;48.872;9.226;2022-09-12T00:02:50;11.50;;;10.40;;
359;SDS011;168;48.872;9.226;2022-09-12T00:05:18;11.30;;;10.30;;
359;SDS011;168;48.872;9.226;2022-09-12T00:10:24;12.13;;;10.80;;
359;SDS011;168;48.872;9.226;2022-09-12T00:12:51;12.20;;;11.00;;
359;SDS011;168;48.872;9.226;2022-09-12T00:15:20;11.60;;;10.50;;
359;SDS011;168;48.872;9.226;2022-09-12T00:17:47;10.97;;;9.97;;
359;SDS011;168;48.872;9.226;2022-09-12T00:20:15;11.07;;;10.17;;
359;SDS011;168;48.872;9.226;2022-09-12T00:22:42;11.93;;;10.80;;
359;SDS011;168;48.872;9.226;2022-09-12T00:25:11;11.33;;;10.23;;
359;SDS011;168;48.872;9.226;2022-09-12T00:27:39;11.53;;;10.50;;
359;SDS011;168;48.872;9.226;2022-09-12T00:30:07;10.70;;;9.80;;
359;SDS011;168;48.872;9.226;2022-09-12T00:32:34;12.03;;;10.77;;
359;SDS011;168;48.872;9.226;2022-09-12T00:35:02;11.93;;;10.93;;
359;SDS011;168;48.872;9.226;2022-09-12T00:37:30;12.67;;;11.57;;
359;SDS011;168;48.872;9.226;2022-09-12T00:39:57;12.43;;;11.33;;
359;SDS011;168;48.872;9.226;2022-09-12T00:42:26;12.53;;;11.40;;
359;SDS011;168;48.872;9.226;2022-09-12T00:44:53;11.40;;;10.20;;
359;SDS011;168;48.872;9.226;2022-09-12T00:47:22;12.07;;;10.87;;
359;SDS011;168;48.872;9.226;2022-09-12T00:49:54;12.20;;;11.20;;
359;SDS011;168;48.872;9.226;2022-09-12T00:52:27;12.53;;;11.43;;
359;SDS011;168;48.872;9.226;2022-09-12T00:54:59;14.20;;;11.37;;
359;SDS011;168;48.872;9.226;2022-09-12T00:57:36;11.30;;;10.30;;
359;SDS011;168;48.872;9.226;2022-09-12T01:00:07;11.93;;;10.87;;
359;SDS011;168;48.872;9.226;2022-09-12T01:02:40;12.50;;;11.20;;
359;SDS011;168;48.872;9.226;2022-09-12T01:05:09;12.83;;;11.63;;
359;SDS011;168;48.872;9.226;2022-09-12T01:07:39;13.03;;;11.93;;
359;SDS011;168;48.872;9.226;2022-09-12T01:10:07;13.47;;;12.07;;
359;SDS011;168;48.872;9.226;2022-09-12T01:12:38;13.70;;;12.40;;
359;SDS011;168;48.872;9.226;2022-09-12T01:15:06;13.40;;;11.63;;
359;SDS011;168;48.872;9.226;2022-09-12T01:17:39;14.00;;;12.70;;
359;SDS011;168;48.872;9.226;2022-09-12T01:29:28;14.80;;;13.40;;
359;SDS011;168;48.872;9.226;2022-09-12T01:32:23;15.50;;;14.10;;
359;SDS011;168;48.872;9.226;2022-09-12T01:34:57;13.97;;;12.67;;
359;SDS011;168;48.872;9.226;2022-09-12T01:37:34;14.77;;;13.33;;
359;SDS011;168;48.872;9.226;2022-09-12T01:40:09;13.77;;;12.57;;
359;SDS011;168;48.872;9.226;2022-09-12T01:42:44;14.00;;;12.80;;
359;SDS011;168;48.872;9.226;2022-09-12T01:45:22;15.27;;;12.83;;
359;SDS011;168;48.872;9.226;2022-09-12T01:47:55;15.03;;;13.63;;
359;SDS011;168;48.872;9.226;2022-09-12T01:50:30;13.80;;;12.50;;
359;SDS011;168;48.872;9.226;2022-09-12T01:53:00;14.43;;;13.03;;
359;SDS011;168;48.872;9.226;2022-09-12T01:55:31;13.23;;;10.90;;
359;SDS011;168;48.872;9.226;2022-09-12T01:58:02;12.23;;;11.07;;
359;SDS011;168;48.872;9.226;2022-09-12T02:00:34;12.07;;;10.97;;
359;SDS011;168;48.872;9.226;2022-09-12T02:03:09;11.97;;;10.77;;
359;SDS011;168;48.872;9.226;2022-09-12T02:05:40;12.10;;;10.90;;
359;SDS011;168;48.872;9.226;2022-09-12T02:08:12;12.20;;;11.20;;
359;SDS011;168;48.872;9.226;2022-09-12T02:10:43;12.77;;;11.67;;
359;SDS011;168;48.872;9.226;2022-09-12T02:13:14;11.73;;;10.73;;
359;SDS011;168;48.872;9.226;2022-09-12T02:15:48;13.37;;;11.63;;
359;SDS011;168;48.872;9.226;2022-09-12T02:18:20;11.67;;;10.57;;
359;SDS011;168;48.872;9.226;2022-09-12T02:20:50;11.80;;;10.77;;
359;SDS011;168;48.872;9.226;2022-09-12T02:23:19;12.43;;;11.33;;
359;SDS011;168;48.872;9.226;2022-09-12T02:25:51;12.20;;;11.10;;
359;SDS011;168;48.872;9.226;2022-09-12T02:28:23;12.60;;;11.37;;
359;SDS011;168;48.872;9.226;2022-09-12T02:30:55;13.20;;;11.90;;
359;SDS011;168;48.872;9.226;2022-09-12T02:33:31;13.37;;;12.07;;
359;SDS011;168;48.872;9.226;2022-09-12T02:36:06;11.97;;;10.87;;
359;SDS011;168;48.872;9.226;2022-09-12T02:38:41;14.43;;;13.17;;
359;SDS011;168;48.872;9.226;2022-09-12T02:41:12;12.23;;;11.03;;
359;SDS011;168;48.872;9.226;2022-09-12T02:43:45;13.40;;;11.87;;
359;SDS011;168;48.872;9.226;2022-09-12T02:46:14;13.73;;;12.43;;
359;SDS011;168;48.872;9.226;2022-09-12T02:48:47;12.70;;;11.60;;
359;SDS011;168;48.872;9.226;2022-09-12T02:51:15;12.77;;;11.57;;
359;SDS011;168;48.872;9.226;2022-09-12T02:53:43;12.73;;;11.60;;
359;SDS011;168;48.872;9.226;2022-09-12T02:56:11;12.80;;;11.60;;
359;SDS011;168;48.872;9.226;2022-09-12T02:58:43;13.10;;;11.90;;
359;SDS011;168;48.872;9.226;2022-09-12T03:01:13;12.63;;;11.53;;
359;SDS011;168;48.872;9.226;2022-09-12T03:03:58;12.83;;;11.63;;
359;SDS011;168;48.872;9.226;2022-09-12T03:06:38;13.73;;;12.10;;
359;SDS011;168;48.872;9.226;2022-09-12T03:09:14;13.87;;;12.63;;
359;SDS011;168;48.872;9.226;2022-09-12T03:11:51;13.30;;;12.07;;
359;SDS011;168;48.872;9.226;2022-09-12T03:14:35;13.37;;;12.13;;
359;SDS011;168;48.872;9.226;2022-09-12T03:17:28;15.30;;;12.20;;
359;SDS011;168;48.872;9.226;2022-09-12T03:20:08;13.13;;;12.00;;
359;SDS011;168;48.872;9.226;2022-09-12T03:22:41;13.57;;;12.37;;
359;SDS011;168;48.872;9.226;2022-09-12T03:25:17;13.90;;;12.70;;
359;SDS011;168;48.872;9.226;2022-09-12T03:27:50;13.70;;;12.30;;
359;SDS011;168;48.872;9.226;2022-09-12T03:30:23;12.80;;;11.60;;
359;SDS011;168;48.872;9.226;2022-09-12T03:32:52;13.87;;;12.00;;
359;SDS011;168;48.872;9.226;2022-09-12T03:35:22;12.50;;;11.40;;
359;SDS011;168;48.872;9.226;2022-09-12T03:37:50;13.77;;;12.57;;
359;SDS011;168;48.872;9.226;2022-09-12T03:40:18;14.20;;;12.73;;
359;SDS011;168;48.872;9.226;2022-09-12T03:42:46;12.83;;;11.57;;
359;SDS011;168;48.872;9.226;2022-09-12T03:45:14;13.33;;;12.00;;
359;SDS011;168;48.872;9.226;2022-09-12T03:47:41;13.67;;;12.37;;
359;SDS011;168;48.872;9.226;2022-09-12T03:50:09;15.07;;;13.50;;
359;SDS011;168;48.872;9.226;2022-09-12T03:52:39;16.33;;;13.30;;
359;SDS011;168;48.872;9.226;2022-09-12T03:55:06;14.53;;;13.23;;
359;SDS011;168;48.872;9.226;2022-09-12T03:57:34;15.97;;;14.47;;
359;SDS011;168;48.872;9.226;2022-09-12T04:00:02;15.87;;;14.30;;
359;SDS011;168;48.872;9.226;2022-09-12T04:02:31;16.67;;;15.07;;
359;SDS011;168;48.872;9.226;2022-09-12T04:04:59;16.63;;;14.97;;
359;SDS011;168;48.872;9.226;2022-09-12T04:07:26;18.33;;;16.57;;
359;SDS011;168;48.872;9.226;2022-09-12T04:09:55;18.77;;;16.90;;
359;SDS011;168;48.872;9.226;2022-09-12T04:12:23;18.70;;;16.80;;
359;SDS011;168;48.872;9.226;2022-09-12T04:14:53;17.67;;;15.87;;
359;SDS011;168;48.872;9.226;2022-09-12T04:17:21;19.07;;;17.07;;
359;SDS011;168;48.872;9.226;2022-09-12T04:19:48;17.73;;;16.03;;
359;SDS011;168;48.872;9.226;2022-09-12T04:22:16;17.23;;;15.53;;
359;SDS011;168;48.872;9.226;2022-09-12T04:24:43;18.57;;;16.77;;
359;SDS011;168;48.872;9.226;2022-09-12T04:27:12;16.10;;;14.70;;
359;SDS011;168;48.872;9.226;2022-09-12T04:29:40;16.83;;;15.20;;
359;SDS011;168;48.872;9.226;2022-09-12T04:32:07;16.60;;;14.90;;
359;SDS011;168;48.872;9.226;2022-09-12T04:34:35;17.03;;;15.47;;
359;SDS011;168;48.872;9.226;2022-09-12T04:37:03;17.20;;;15.60;;
359;SDS011;168;48.872;9.226;2022-09-12T04:39:30;16.97;;;15.27;;
359;SDS011;168;48.872;9.226;2022-09-12T04:41:57;16.10;;;14.60;;
359;SDS011;168;48.872;9.226;2022-09-12T04:44:30;19.23;;;17.42;;
359;SDS011;168;48.872;9.226;2022-09-12T04:46:58;18.90;;;17.17;;
359;SDS011;168;48.872;9.226;2022-09-12T04:49:25;19.50;;;15.93;;
359;SDS011;168;48.872;9.226;2022-09-12T04:51:52;18.23;;;16.50;;
359;SDS011;168;48.872;9.226;2022-09-12T04:54:20;16.90;;;15.33;;
359;SDS011;168;48.872;9.226;2022-09-12T04:56:48;18.47;;;16.43;;
359;SDS011;168;48.872;9.226;2022-09-12T04:59:18;17.23;;;15.63;;
359;SDS011;168;48.872;9.226;2022-09-12T05:01:48;18.93;;;17.00;;
359;SDS011;168;48.872;9.226;2022-09-12T05:04:15;18.40;;;16.60;;
359;SDS011;168;48.872;9.226;2022-09-12T05:06:44;19.47;;;17.53;;
359;SDS011;168;48.872;9.226;2022-09-12T05:09:12;17.50;;;15.80;;
359;SDS011;168;48.872;9.226;2022-09-12T05:11:41;19.00;;;17.10;;
359;SDS011;168;48.872;9.226;2022-09-12T05:14:09;16.13;;;14.43;;
359;SDS011;168;48.872;9.226;2022-09-12T05:16:37;18.10;;;15.90;;
359;SDS011;168;48.872;9.226;2022-09-12T05:19:08;16.70;;;15.10;;
359;SDS011;168;48.872;9.226;2022-09-12T05:21:37;15.17;;;13.67;;
359;SDS011;168;48.872;9.226;2022-09-12T05:24:05;14.70;;;13.20;;
359;SDS011;168;48.872;9.226;2022-09-12T05:26:37;14.43;;;13.13;;
359;SDS011;168;48.872;9.226;2022-09-12T05:29:06;14.93;;;13.50;;
359;SDS011;168;48.872;9.226;2022-09-12T05:31:33;14.60;;;13.27;;
359;SDS011;168;48.872;9.226;2022-09-12T05:34:02;14.40;;;13.07;;
359;SDS011;168;48.872;9.226;2022-09-12T05:36:35;13.03;;;11.83;;
359;SDS011;168;48.872;9.226;2022-09-12T05:39:03;13.57;;;12.37;;
359;SDS011;168;48.872;9.226;2022-09-12T05:41:31;14.70;;;13.40;;
359;SDS011;168;48.872;9.226;2022-09-12T05:43:59;13.90;;;12.60;;
359;SDS011;168;48.872;9.226;2022-09-12T05:46:29;14.20;;;12.90;;
359;SDS011;168;48.872;9.226;2022-09-12T05:49:01;13.30;;;12.10;;
359;SDS011;168;48.872;9.226;2022-09-12T05:51:33;14.00;;;12.70;;
359;SDS011;168;48.872;9.226;2022-09-12T05:54:08;14.20;;;12.80;;
359;SDS011;168;48.872;9.226;2022-09-12T05:56:50;13.80;;;12.50;;
359;SDS011;168;48.872;9.226;2022-09-12T05:59:27;12.43;;;11.33;;
359;SDS011;168;48.872;9.226;2022-09-12T06:01:55;12.53;;;11.47;;
359;SDS011;168;48.872;9.226;2022-09-12T06:04:23;13.30;;;12.10;;
359;SDS011;168;48.872;9.226;2022-09-12T06:06:52;12.40;;;11.30;;
359;SDS011;168;48.872;9.226;2022-09-12T06:09:20;12.23;;;11.10;;
359;SDS011;168;48.872;9.226;2022-09-12T06:11:49;11.53;;;10.47;;
359;SDS011;168;48.872;9.226;2022-09-12T06:14:17;10.97;;;10.00;;
359;SDS011;168;48.872;9.226;2022-09-12T06:16:45;11.77;;;10.57;;
359;SDS011;168;48.872;9.226;2022-09-12T06:19:14;11.93;;;10.67;;
359;SDS011;168;48.872;9.226;2022-09-12T06:21:42;12.00;;;10.90;;
359;SDS011;168;48.872;9.226;2022-09-12T06:24:11;11.37;;;10.37;;
359;SDS011;168;48.872;9.226;2022-09-12T06:26:39;10.60;;;9.67;;
359;SDS011;168;48.872;9.226;2022-09-12T06:29:08;11.13;;;10.03;;
359;SDS011;168;48.872;9.226;2022-09-12T06:31:37;11.50;;;10.60;;
359;SDS011;168;48.872;9.226;2022-09-12T06:34:07;12.70;;;11.53;;
359;SDS011;168;48.872;9.226;2022-09-12T06:36:37;13.20;;;12.10;;
359;SDS011;168;48.872;9.226;2022-09-12T06:39:06;12.53;;;11.23;;
359;SDS011;168;48.872;9.226;2022-09-12T06:41:37;12.70;;;11.60;;
359;SDS011;168;48.872;9.226;2022-09-12T06:44:05;13.53;;;11.63;;
359;SDS011;168;48.872;9.226;2022-09-12T06:46:32;13.07;;;11.90;;
359;SDS011;168;48.872;9.226;2022-09-12T06:49:00;12.60;;;11.50;;
359;SDS011;168;48.872;9.226;2022-09-12T06:51:28;13.20;;;12.00;;
359;SDS011;168;48.872;9.226;2022-09-12T06:53:55;12.33;;;11.17;;
359;SDS011;168;48.872;9.226;2022-09-12T06:56:24;11.67;;;10.67;;
359;SDS011;168;48.872;9.226;2022-09-12T06:58:54;12.50;;;11.30;;
359;SDS011;168;48.872;9.226;2022-09-12T07:01:23;12.43;;;11.37;;
359;SDS011;168;48.872;9.226;2022-09-12T07:03:53;12.70;;;11.47;;
359;SDS011;168;48.872;9.226;2022-09-12T07:06:22;14.30;;;13.00;;
359;SDS011;168;48.872;9.226;2022-09-12T07:08:55;13.43;;;12.13;;
359;SDS011;168;48.872;9.226;2022-09-12T07:11:24;13.20;;;12.10;;
359;SDS011;168;48.872;9.226;2022-09-12T07:13:55;13.70;;;12.53;;
359;SDS011;168;48.872;9.226;2022-09-12T07:16:23;12.37;;;11.37;;
359;SDS011;168;48.872;9.226;2022-09-12T07:18:52;13.17;;;11.97;;
359;SDS011;168;48.872;9.226;2022-09-12T07:21:20;12.53;;;11.43;;
359;SDS011;168;48.872;9.226;2022-09-12T07:23:48;12.27;;;11.10;;
359;SDS011;168;48.872;9.226;2022-09-12T07:26:16;12.30;;;11.23;;
359;SDS011;168;48.872;9.226;2022-09-12T07:28:45;11.87;;;10.87;;
359;SDS011;168;48.872;9.226;2022-09-12T07:31:19;13.07;;;11.97;;
359;SDS011;168;48.872;9.226;2022-09-12T07:33:48;13.60;;;12.40;;
359;SDS011;168;48.872;9.226;2022-09-12T07:36:17;13.80;;;12.50;;
359;SDS011;168;48.872;9.226;2022-09-12T07:38:47;12.80;;;11.70;;
359;SDS011;168;48.872;9.226;2022-09-12T07:41:16;13.30;;;12.10;;
359;SDS011;168;48.872;9.226;2022-09-12T07:43:46;12.40;;;11.40;;
359;SDS011;168;48.872;9.226;2022-09-12T07:46:14;12.63;;;11.63;;
359;SDS011;168;48.872;9.226;2022-09-12T07:48:42;13.40;;;12.20;;
359;SDS011;168;48.872;9.226;2022-09-12T07:51:10;12.50;;;11.33;;
359;SDS011;168;48.872;9.226;2022-09-12T07:53:38;12.57;;;11.23;;
359;SDS011;168;48.872;9.226;2022-09-12T07:56:08;13.47;;;12.33;;
359;SDS011;168;48.872;9.226;2022-09-12T07:58:37;11.97;;;10.87;;
359;SDS011;168;48.872;9.226;2022-09-12T08:01:07;13.10;;;12.00;;
359;SDS011;168;48.872;9.226;2022-09-12T08:03:35;11.17;;;10.27;;
359;SDS011;168;48.872;9.226;2022-09-12T08:06:05;12.90;;;11.70;;
359;SDS011;168;48.872;9.226;2022-09-12T08:08:34;12.80;;;11.70;;
359;SDS011;168;48.872;9.226;2022-09-12T08:11:03;12.70;;;11.60;;
359;SDS011;168;48.872;9.226;2022-09-12T08:13:33;11.53;;;10.53;;
359;SDS011;168;48.872;9.226;2022-09-12T08:16:02;11.20;;;10.30;;
359;SDS011;168;48.872;9.226;2022-09-12T08:18:31;10.43;;;9.63;;
359;SDS011;168;48.872;9.226;2022-09-12T08:21:00;9.93;;;9.20;;
359;SDS011;168;48.872;9.226;2022-09-12T08:23:31;10.73;;;9.83;;
359;SDS011;168;48.872;9.226;2022-09-12T08:25:59;10.57;;;9.67;;
359;SDS011;168;48.872;9.226;2022-09-12T08:28:28;9.93;;;9.13;;
359;SDS011;168;48.872;9.226;2022-09-12T08:30:58;9.50;;;8.80;;
359;SDS011;168;48.872;9.226;2022-09-12T08:33:27;9.53;;;8.50;;
359;SDS011;168;48.872;9.226;2022-09-12T08:36:01;9.27;;;8.57;;
359;SDS011;168;48.872;9.226;2022-09-12T08:38:35;10.77;;;9.77;;
359;SDS011;168;48.872;9.226;2022-09-12T08:41:06;9.37;;;8.67;;
359;SDS011;168;48.872;9.226;2022-09-12T08:43:42;9.30;;;8.50;;
359;SDS011;168;48.872;9.226;2022-09-12T08:46:19;10.77;;;9.73;;
359;SDS011;168;48.872;9.226;2022-09-12T08:48:50;8.57;;;7.87;;
359;SDS011;168;48.872;9.226;2022-09-12T08:51:19;8.93;;;8.13;;
359;SDS011;168;48.872;9.226;2022-09-12T08:53:49;8.70;;;8.00;;
359;SDS011;168;48.872;9.226;2022-09-12T08:56:21;9.15;;;8.38;;
359;SDS011;168;48.872;9.226;2022-09-12T08:58:49;9.57;;;8.67;;
359;SDS011;168;48.872;9.226;2022-09-12T09:01:19;8.70;;;8.00;;
359;SDS011;168;48.872;9.226;2022-09-12T09:04:06;9.70;;;8.70;;
359;SDS011;168;48.872;9.226;2022-09-12T09:06:52;8.20;;;7.50;;
359;SDS011;168;48.872;9.226;2022-09-12T09:09:46;8.30;;;7.68;;
359;SDS011;168;48.872;9.226;2022-09-12T09:12:27;7.03;;;6.30;;
359;SDS011;168;48.872;9.226;2022-09-12T09:15:11;7.90;;;7.20;;
359;SDS011;168;48.872;9.226;2022-09-12T09:17:50;7.70;;;7.00;;
359;SDS011;168;48.872;9.226;2022-09-12T09:20:24;6.57;;;6.07;;
359;SDS011;168;48.872;9.226;2022-09-12T09:22:57;7.00;;;6.40;;
359;SDS011;168;48.872;9.226;2022-09-12T09:25:38;6.20;;;5.80;;
359;SDS011;168;48.872;9.226;2022-09-12T09:28:15;6.77;;;6.30;;
359;SDS011;168;48.872;9.226;2022-09-12T09:30:47;6.83;;;6.23;;
359;SDS011;168;48.872;9.226;2022-09-12T09:33:17;6.30;;;5.70;;
359;SDS011;168;48.872;9.226;2022-09-12T09:35:51;7.03;;;6.50;;
359;SDS011;168;48.872;9.226;2022-09-12T09:38:28;6.17;;;5.67;;
359;SDS011;168;48.872;9.226;2022-09-12T09:41:12;5.87;;;5.37;;
359;SDS011;168;48.872;9.226;2022-09-12T09:43:49;7.10;;;5.80;;
359;SDS011;168;48.872;9.226;2022-09-12T09:46:17;5.33;;;4.97;;
359;SDS011;168;48.872;9.226;2022-09-12T09:48:45;5.57;;;5.10;;
359;SDS011;168;48.872;9.226;2022-09-12T09:51:17;6.00;;;5.50;;
359;SDS011;168;48.872;9.226;2022-09-12T09:53:51;4.73;;;4.30;;
359;SDS011;168;48.872;9.226;2022-09-12T09:56:27;4.73;;;4.43;;
359;SDS011;168;48.872;9.226;2022-09-12T09:59:07;5.60;;;5.07;;
359;SDS011;168;48.872;9.226;2022-09-12T10:01:36;4.60;;;4.30;;
359;SDS011;168;48.872;9.226;2022-09-12T10:04:14;4.70;;;4.40;;
359;SDS011;168;48.872;9.226;2022-09-12T10:06:44;5.00;;;4.20;;
359;SDS011;168;48.872;9.226;2022-09-12T10:09:22;4.83;;;4.43;;
359;SDS011;168;48.872;9.226;2022-09-12T10:11:53;5.13;;;4.73;;
359;SDS011;168;48.872;9.226;2022-09-12T10:14:26;5.27;;;4.87;;
359;SDS011;168;48.872;9.226;2022-09-12T10:16:59;5.40;;;5.00;;
359;SDS011;168;48.872;9.226;2022-09-12T10:19:35;5.40;;;5.00;;
359;SDS011;168;48.872;9.226;2022-09-12T10:22:04;4.40;;;4.10;;
359;SDS011;168;48.872;9.226;2022-09-12T10:24:34;4.27;;;3.97;;
359;SDS011;168;48.872;9.226;2022-09-12T10:27:08;4.70;;;4.32;;
359;SDS011;168;48.872;9.226;2022-09-12T10:29:42;4.53;;;4.23;;
359;SDS011;168;48.872;9.226;2022-09-12T10:32:12;3.70;;;3.27;;
359;SDS011;168;48.872;9.226;2022-09-12T10:34:50;3.70;;;3.50;;
359;SDS011;168;48.872;9.226;2022-09-12T10:37:22;3.90;;;3.70;;
359;SDS011;168;48.872;9.226;2022-09-12T10:39:55;3.60;;;3.30;;
359;SDS011;168;48.872;9.226;2022-09-12T10:45:20;3.17;;;2.87;;
359;SDS011;168;48.872;9.226;2022-09-12T10:47:54;5.03;;;3.70;;
359;SDS011;168;48.872;9.226;2022-09-12T10:50:24;3.97;;;3.70;;
359;SDS011;168;48.872;9.226;2022-09-12T10:52:54;3.60;;;3.30;;
359;SDS011;168;48.872;9.226;2022-09-12T10:55:38;3.60;;;3.30;;
359;SDS011;168;48.872;9.226;2022-09-12T10:58:12;3.70;;;3.50;;
359;SDS011;168;48.872;9.226;2022-09-12T11:00:53;3.78;;;3.47;;
359;SDS011;168;48.872;9.226;2022-09-12T11:03:33;3.50;;;3.30;;
359;SDS011;168;48.872;9.226;2022-09-12T11:06:11;4.33;;;3.23;;
359;SDS011;168;48.872;9.226;2022-09-12T11:08:50;3.90;;;3.67;;
359;SDS011;168;48.872;9.226;2022-09-12T11:11:32;3.67;;;3.43;;
359;SDS011;168;48.872;9.226;2022-09-12T11:14:23;3.73;;;3.43;;
359;SDS011;168;48.872;9.226;2022-09-12T11:17:08;3.57;;;3.27;;
359;SDS011;168;48.872;9.226;2022-09-12T11:19:52;3.53;;;3.33;;
359;SDS011;168;48.872;9.226;2022-09-12T11:22:35;3.83;;;3.53;;
359;SDS011;168;48.872;9.226;2022-09-12T11:25:26;4.00;;;3.60;;
359;SDS011;168;48.872;9.226;2022-09-12T11:28:03;3.80;;;3.50;;
359;SDS011;168;48.872;9.226;2022-09-12T11:30:48;3.67;;;3.47;;
359;SDS011;168;48.872;9.226;2022-09-12T11:33:33;3.43;;;3.20;;
359;SDS011;168;48.872;9.226;2022-09-12T11:36:08;3.80;;;3.60;;
359;SDS011;168;48.872;9.226;2022-09-12T11:38:45;3.57;;;3.37;;
359;SDS011;168;48.872;9.226;2022-09-12T11:41:20;3.80;;;3.50;;
359;SDS011;168;48.872;9.226;2022-09-12T11:43:55;3.20;;;3.00;;
359;SDS011;168;48.872;9.226;2022-09-12T11:46:30;4.23;;;3.90;;
359;SDS011;168;48.872;9.226;2022-09-12T11:49:03;4.17;;;3.10;;
359;SDS011;168;48.872;9.226;2022-09-12T11:51:38;3.40;;;3.20;;
359;SDS011;168;48.872;9.226;2022-09-12T11:54:11;3.20;;;3.00;;
359;SDS011;168;48.872;9.226;2022-09-12T11:56:45;3.27;;;3.07;;
359;SDS011;168;48.872;9.226;2022-09-12T11:59:16;3.70;;;3.40;;
359;SDS011;168;48.872;9.226;2022-09-12T12:01:57;3.40;;;3.10;;
359;SDS011;168;48.872;9.226;2022-09-12T12:04:28;3.53;;;3.33;;
359;SDS011;168;48.872;9.226;2022-09-12T12:07:02;3.00;;;2.80;;
359;SDS011;168;48.872;9.226;2022-09-12T12:09:31;3.00;;;2.80;;
359;SDS011;168;48.872;9.226;2022-09-12T12:12:00;3.50;;;3.30;;
359;SDS011;168;48.872;9.226;2022-09-12T12:14:34;6.63;;;5.30;;
359;SDS011;168;48.872;9.226;2022-09-12T12:17:13;2.43;;;2.33;;
359;SDS011;168;48.872;9.226;2022-09-12T12:19:42;2.80;;;2.70;;
359;SDS011;168;48.872;9.226;2022-09-12T12:22:15;3.57;;;3.27;;
359;SDS011;168;48.872;9.226;2022-09-12T12:25:06;3.13;;;2.93;;
359;SDS011;168;48.872;9.226;2022-09-12T12:27:51;3.63;;;3.33;;
359;SDS011;168;48.872;9.226;2022-09-12T12:36:36;3.10;;;2.90;;
359;SDS011;168;48.872;9.226;2022-09-12T12:42:09;2.07;;;1.97;;
359;SDS011;168;48.872;9.226;2022-09-12T12:44:46;2.80;;;2.60;;
359;SDS011;168;48.872;9.226;2022-09-12T12:47:16;2.30;;;2.13;;
359;SDS011;168;48.872;9.226;2022-09-12T12:49:50;2.63;;;2.43;;
359;SDS011;168;48.872;9.226;2022-09-12T12:52:19;2.63;;;2.43;;
359;SDS011;168;48.872;9.226;2022-09-12T12:54:48;2.50;;;2.40;;
359;SDS011;168;48.872;9.226;2022-09-12T12:57:22;2.10;;;2.00;;
359;SDS011;168;48.872;9.226;2022-09-12T12:59:57;2.50;;;2.30;;
359;SDS011;168;48.872;9.226;2022-09-12T13:02:28;2.23;;;2.10;;
359;SDS011;168;48.872;9.226;2022-09-12T13:05:03;2.13;;;2.03;;
359;SDS011;168;48.872;9.226;2022-09-12T13:07:33;2.20;;;2.10;;
359;SDS011;168;48.872;9.226;2022-09-12T13:10:05;2.07;;;1.87;;
359;SDS011;168;48.872;9.226;2022-09-12T13:12:35;2.30;;;2.20;;
359;SDS011;168;48.872;9.226;2022-09-12T13:18:12;2.00;;;1.90;;
359;SDS011;168;48.872;9.226;2022-09-12T13:20:46;1.90;;;1.80;;
359;SDS011;168;48.872;9.226;2022-09-12T13:25:53;2.40;;;2.30;;
359;SDS011;168;48.872;9.226;2022-09-12T13:28:22;2.53;;;2.43;;
359;SDS011;168;48.872;9.226;2022-09-12T13:30:57;2.73;;;2.53;;
359;SDS011;168;48.872;9.226;2022-09-12T13:33:29;2.50;;;2.30;;
359;SDS011;168;48.872;9.226;2022-09-12T13:36:13;2.50;;;2.30;;
359;SDS011;168;48.872;9.226;2022-09-12T13:38:57;1.53;;;1.43;;
359;SDS011;168;48.872;9.226;2022-09-12T13:41:38;2.40;;;2.07;;
359;SDS011;168;48.872;9.226;2022-09-12T13:44:23;1.90;;;1.80;;
359;SDS011;168;48.872;9.226;2022-09-12T13:46:51;1.73;;;1.63;;
359;SDS011;168;48.872;9.226;2022-09-12T13:49:20;2.00;;;1.80;;
359;SDS011;168;48.872;9.226;2022-09-12T13:51:57;1.93;;;1.83;;
359;SDS011;168;48.872;9.226;2022-09-12T13:54:27;1.77;;;1.67;;
359;SDS011;168;48.872;9.226;2022-09-12T13:56:56;1.70;;;1.60;;
359;SDS011;168;48.872;9.226;2022-09-12T13:59:24;1.73;;;1.40;;
359;SDS011;168;48.872;9.226;2022-09-12T14:01:51;1.40;;;1.30;;
359;SDS011;168;48.872;9.226;2022-09-12T14:04:19;1.60;;;1.50;;
359;SDS011;168;48.872;9.226;2022-09-12T14:07:10;1.47;;;1.40;;
359;SDS011;168;48.872;9.226;2022-09-12T14:09:43;1.60;;;1.50;;
359;SDS011;168;48.872;9.226;2022-09-12T14:12:13;1.40;;;1.30;;
359;SDS011;168;48.872;9.226;2022-09-12T14:14:50;4.77;;;1.57;;
359;SDS011;168;48.872;9.226;2022-09-12T14:17:22;1.43;;;1.33;;
359;SDS011;168;48.872;9.226;2022-09-12T14:19:54;1.57;;;1.47;;
359;SDS011;168;48.872;9.226;2022-09-12T14:22:25;1.45;;;1.35;;
359;SDS011;168;48.872;9.226;2022-09-12T14:24:54;2.03;;;1.80;;
359;SDS011;168;48.872;9.226;2022-09-12T14:27:25;1.15;;;1.10;;
359;SDS011;168;48.872;9.226;2022-09-12T14:29:56;1.50;;;1.40;;
359;SDS011;168;48.872;9.226;2022-09-12T14:32:27;1.70;;;1.60;;
359;SDS011;168;48.872;9.226;2022-09-12T14:37:49;1.60;;;1.40;;
359;SDS011;168;48.872;9.226;2022-09-12T14:40:21;1.17;;;1.07;;
359;SDS011;168;48.872;9.226;2022-09-12T14:42:54;1.33;;;1.20;;
359;SDS011;168;48.872;9.226;2022-09-12T14:45:22;1.90;;;1.80;;
359;SDS011;168;48.872;9.226;2022-09-12T14:47:56;2.13;;;1.93;;
359;SDS011;168;48.872;9.226;2022-09-12T14:50:33;1.60;;;1.50;;
359;SDS011;168;48.872;9.226;2022-09-12T14:56:07;2.10;;;1.50;;
359;SDS011;168;48.872;9.226;2022-09-12T14:58:46;1.50;;;1.40;;
359;SDS011;168;48.872;9.226;2022-09-12T15:05:22;1.33;;;1.20;;
359;SDS011;168;48.872;9.226;2022-09-12T15:08:13;1.20;;;1.20;;
359;SDS011;168;48.872;9.226;2022-09-12T15:10:52;1.30;;;1.20;;
359;SDS011;168;48.872;9.226;2022-09-12T15:13:22;1.37;;;1.10;;
359;SDS011;168;48.872;9.226;2022-09-12T15:15:52;2.17;;;1.57;;
359;SDS011;168;48.872;9.226;2022-09-12T15:18:21;1.47;;;1.37;;
359;SDS011;168;48.872;9.226;2022-09-12T15:20:51;1.40;;;1.30;;
359;SDS011;168;48.872;9.226;2022-09-12T15:23:23;1.63;;;1.00;;
359;SDS011;168;48.872;9.226;2022-09-12T15:25:56;1.57;;;1.40;;
359;SDS011;168;48.872;9.226;2022-09-12T15:28:26;1.83;;;1.73;;
359;SDS011;168;48.872;9.226;2022-09-12T15:30:54;1.17;;;1.10;;
359;SDS011;168;48.872;9.226;2022-09-12T15:33:23;1.20;;;1.20;;
359;SDS011;168;48.872;9.226;2022-09-12T15:35:51;1.50;;;1.40;;
359;SDS011;168;48.872;9.226;2022-09-12T15:38:19;1.20;;;0.97;;
359;SDS011;168;48.872;9.226;2022-09-12T15:40:48;1.33;;;1.23;;
359;SDS011;168;48.872;9.226;2022-09-12T15:43:19;1.10;;;1.07;;
359;SDS011;168;48.872;9.226;2022-09-12T15:45:49;1.30;;;1.20;;
359;SDS011;168;48.872;9.226;2022-09-12T15:48:17;1.43;;;1.30;;
359;SDS011;168;48.872;9.226;2022-09-12T15:50:45;1.50;;;1.40;;
359;SDS011;168;48.872;9.226;2022-09-12T15:53:14;1.40;;;1.30;;
359;SDS011;168;48.872;9.226;2022-09-12T15:55:42;1.43;;;1.33;;
359;SDS011;168;48.872;9.226;2022-09-12T15:58:10;1.50;;;1.40;;
359;SDS011;168;48.872;9.226;2022-09-12T16:00:45;1.60;;;1.50;;
359;SDS011;168;48.872;9.226;2022-09-12T16:03:16;1.10;;;1.10;;
359;SDS011;168;48.872;9.226;2022-09-12T16:05:49;1.50;;;1.40;;
359;SDS011;168;48.872;9.226;2022-09-12T16:08:22;4.23;;;1.33;;
359;SDS011;168;48.872;9.226;2022-09-12T16:10:51;1.17;;;1.17;;
359;SDS011;168;48.872;9.226;2022-09-12T16:13:21;1.27;;;1.20;;
359;SDS011;168;48.872;9.226;2022-09-12T16:15:49;1.50;;;1.40;;
359;SDS011;168;48.872;9.226;2022-09-12T16:18:19;1.10;;;1.10;;
359;SDS011;168;48.872;9.226;2022-09-12T16:20:46;3.23;;;2.30;;
359;SDS011;168;48.872;9.226;2022-09-12T16:23:17;1.53;;;1.43;;
359;SDS011;168;48.872;9.226;2022-09-12T16:25:45;1.40;;;1.30;;
359;SDS011;168;48.872;9.226;2022-09-12T16:28:21;1.97;;;1.87;;
359;SDS011;168;48.872;9.226;2022-09-12T16:30:53;1.57;;;1.47;;
359;SDS011;168;48.872;9.226;2022-09-12T16:33:22;1.67;;;1.60;;
359;SDS011;168;48.872;9.226;2022-09-12T16:35:50;3.00;;;2.00;;
359;SDS011;168;48.872;9.226;2022-09-12T16:38:19;1.60;;;1.50;;